sensor_id;sensor_type;location;lat;lon;timestamp;P1;durP1;ratioP1;P2;durP2;ratioP2
8592;SDS011;4334;49.982;8.398;2023-02-26T00:00:00;5.43;;;2.27;;
8592;SDS011;4334;49.982;8.398;2023-02-26T00:02:28;5.23;;;2.63;;
8592;SDS011;4334;49.982;8.398;2023-02-26T00:04:55;3.40;;;2.57;;
8592;SDS011;4334;49.982;8.398;2023-02-26T00:07:22;4.40;;;2.50;;
8592;SDS011;4334;49.982;8.398;2023-02-26T00:09:53;5.17;;;2.23;;
8592;SDS011;4334;49.982;8.398;2023-02-26T00:12:20;4.83;;;2.43;;
8592;SDS011;4334;49.982;8.398;2023-02-26T00:14:49;4.47;;;2.63;;
8592;SDS011;4334;49.982;8.398;2023-02-26T00:17:30;3.97;;;2.57;;
8592;SDS011;4334;49.982;8.398;2023-02-26T00:20:00;7.57;;;2.90;;
8592;SDS011;4334;49.982;8.398;2023-02-26T00:22:28;3.60;;;2.40;;
8592;SDS011;4334;49.982;8.398;2023-02-26T00:24:55;4.33;;;2.60;;
8592;SDS011;4334;49.982;8.398;2023-02-26T00:27:22;3.57;;;2.33;;
8592;SDS011;4334;49.982;8.398;2023-02-26T00:29:51;6.77;;;2.57;;
8592;SDS011;4334;49.982;8.398;2023-02-26T00:32:18;3.83;;;2.60;;
8592;SDS011;4334;49.982;8.398;2023-02-26T00:34:45;8.77;;;3.00;;
8592;SDS011;4334;49.982;8.398;2023-02-26T00:37:16;8.03;;;2.53;;
8592;SDS011;4334;49.982;8.398;2023-02-26T00:39:55;6.30;;;2.60;;
8592;SDS011;4334;49.982;8.398;2023-02-26T00:42:33;8.37;;;2.67;;
8592;SDS011;4334;49.982;8.398;2023-02-26T00:45:02;5.33;;;2.97;;
8592;SDS011;4334;49.982;8.398;2023-02-26T00:47:32;4.90;;;2.40;;
8592;SDS011;4334;49.982;8.398;2023-02-26T00:50:11;6.77;;;2.77;;
8592;SDS011;4334;49.982;8.398;2023-02-26T00:52:43;6.03;;;2.70;;
8592;SDS011;4334;49.982;8.398;2023-02-26T00:55:15;4.40;;;2.67;;
8592;SDS011;4334;49.982;8.398;2023-02-26T00:57:42;4.93;;;3.13;;
8592;SDS011;4334;49.982;8.398;2023-02-26T01:00:11;6.77;;;2.93;;
8592;SDS011;4334;49.982;8.398;2023-02-26T01:02:39;5.00;;;2.63;;
8592;SDS011;4334;49.982;8.398;2023-02-26T01:05:07;5.43;;;2.50;;
8592;SDS011;4334;49.982;8.398;2023-02-26T01:07:37;3.90;;;2.40;;
8592;SDS011;4334;49.982;8.398;2023-02-26T01:10:07;4.20;;;2.50;;
8592;SDS011;4334;49.982;8.398;2023-02-26T01:12:35;7.33;;;2.70;;
8592;SDS011;4334;49.982;8.398;2023-02-26T01:15:02;5.63;;;2.70;;
8592;SDS011;4334;49.982;8.398;2023-02-26T01:17:33;5.67;;;2.50;;
8592;SDS011;4334;49.982;8.398;2023-02-26T01:20:06;4.33;;;2.23;;
8592;SDS011;4334;49.982;8.398;2023-02-26T01:22:38;5.23;;;2.30;;
8592;SDS011;4334;49.982;8.398;2023-02-26T01:25:08;5.37;;;2.73;;
8592;SDS011;4334;49.982;8.398;2023-02-26T01:27:37;5.93;;;3.10;;
8592;SDS011;4334;49.982;8.398;2023-02-26T01:30:04;7.07;;;2.50;;
8592;SDS011;4334;49.982;8.398;2023-02-26T01:32:36;4.67;;;2.50;;
8592;SDS011;4334;49.982;8.398;2023-02-26T01:35:10;4.40;;;2.20;;
8592;SDS011;4334;49.982;8.398;2023-02-26T01:37:46;4.20;;;2.20;;
8592;SDS011;4334;49.982;8.398;2023-02-26T01:40:30;6.93;;;2.07;;
8592;SDS011;4334;49.982;8.398;2023-02-26T01:43:02;5.90;;;2.57;;
8592;SDS011;4334;49.982;8.398;2023-02-26T01:45:34;4.30;;;2.40;;
8592;SDS011;4334;49.982;8.398;2023-02-26T01:48:06;4.10;;;2.20;;
8592;SDS011;4334;49.982;8.398;2023-02-26T01:50:42;4.50;;;2.03;;
8592;SDS011;4334;49.982;8.398;2023-02-26T01:53:17;6.33;;;2.13;;
8592;SDS011;4334;49.982;8.398;2023-02-26T01:55:48;4.10;;;2.20;;
8592;SDS011;4334;49.982;8.398;2023-02-26T01:58:17;5.23;;;2.30;;
8592;SDS011;4334;49.982;8.398;2023-02-26T02:00:46;8.90;;;2.20;;
8592;SDS011;4334;49.982;8.398;2023-02-26T02:03:14;9.00;;;2.30;;
8592;SDS011;4334;49.982;8.398;2023-02-26T02:05:42;4.20;;;2.57;;
8592;SDS011;4334;49.982;8.398;2023-02-26T02:08:13;8.00;;;2.30;;
8592;SDS011;4334;49.982;8.398;2023-02-26T02:10:41;2.80;;;1.73;;
8592;SDS011;4334;49.982;8.398;2023-02-26T02:13:13;6.03;;;2.30;;
8592;SDS011;4334;49.982;8.398;2023-02-26T02:15:47;4.77;;;2.00;;
8592;SDS011;4334;49.982;8.398;2023-02-26T02:18:23;3.20;;;2.20;;
8592;SDS011;4334;49.982;8.398;2023-02-26T02:21:11;3.37;;;2.10;;
8592;SDS011;4334;49.982;8.398;2023-02-26T02:23:54;5.53;;;2.17;;
8592;SDS011;4334;49.982;8.398;2023-02-26T02:32:22;4.53;;;1.87;;
8592;SDS011;4334;49.982;8.398;2023-02-26T02:34:53;3.93;;;2.10;;
8592;SDS011;4334;49.982;8.398;2023-02-26T02:37:26;4.03;;;1.87;;
8592;SDS011;4334;49.982;8.398;2023-02-26T02:40:00;4.47;;;2.27;;
8592;SDS011;4334;49.982;8.398;2023-02-26T02:42:32;6.33;;;2.00;;
8592;SDS011;4334;49.982;8.398;2023-02-26T02:45:03;2.80;;;1.60;;
8592;SDS011;4334;49.982;8.398;2023-02-26T02:47:36;4.60;;;2.37;;
8592;SDS011;4334;49.982;8.398;2023-02-26T02:50:08;5.70;;;2.13;;
8592;SDS011;4334;49.982;8.398;2023-02-26T02:52:40;3.90;;;1.90;;
8592;SDS011;4334;49.982;8.398;2023-02-26T02:55:12;4.07;;;1.90;;
8592;SDS011;4334;49.982;8.398;2023-02-26T02:57:44;4.80;;;1.90;;
8592;SDS011;4334;49.982;8.398;2023-02-26T03:00:14;4.87;;;2.00;;
8592;SDS011;4334;49.982;8.398;2023-02-26T03:02:46;7.20;;;2.00;;
8592;SDS011;4334;49.982;8.398;2023-02-26T03:05:17;5.67;;;2.03;;
8592;SDS011;4334;49.982;8.398;2023-02-26T03:07:46;6.03;;;2.03;;
8592;SDS011;4334;49.982;8.398;2023-02-26T03:10:16;6.90;;;1.90;;
8592;SDS011;4334;49.982;8.398;2023-02-26T03:12:43;5.63;;;2.00;;
8592;SDS011;4334;49.982;8.398;2023-02-26T03:15:11;3.50;;;1.90;;
8592;SDS011;4334;49.982;8.398;2023-02-26T03:17:40;5.27;;;2.07;;
8592;SDS011;4334;49.982;8.398;2023-02-26T03:20:16;3.83;;;1.90;;
8592;SDS011;4334;49.982;8.398;2023-02-26T03:22:50;2.87;;;2.00;;
8592;SDS011;4334;49.982;8.398;2023-02-26T03:25:26;3.70;;;1.97;;
8592;SDS011;4334;49.982;8.398;2023-02-26T03:27:56;2.30;;;1.83;;
8592;SDS011;4334;49.982;8.398;2023-02-26T03:30:31;5.40;;;2.20;;
8592;SDS011;4334;49.982;8.398;2023-02-26T03:33:04;3.27;;;1.90;;
8592;SDS011;4334;49.982;8.398;2023-02-26T03:35:40;4.00;;;1.70;;
8592;SDS011;4334;49.982;8.398;2023-02-26T03:38:13;4.70;;;2.00;;
8592;SDS011;4334;49.982;8.398;2023-02-26T03:40:44;4.77;;;2.17;;
8592;SDS011;4334;49.982;8.398;2023-02-26T03:43:16;3.80;;;2.03;;
8592;SDS011;4334;49.982;8.398;2023-02-26T03:45:46;7.07;;;2.30;;
8592;SDS011;4334;49.982;8.398;2023-02-26T03:48:18;5.03;;;2.23;;
8592;SDS011;4334;49.982;8.398;2023-02-26T03:50:48;7.93;;;2.27;;
8592;SDS011;4334;49.982;8.398;2023-02-26T03:53:19;5.53;;;2.30;;
8592;SDS011;4334;49.982;8.398;2023-02-26T03:55:51;4.40;;;2.00;;
8592;SDS011;4334;49.982;8.398;2023-02-26T03:58:23;4.93;;;2.27;;
8592;SDS011;4334;49.982;8.398;2023-02-26T04:00:51;4.10;;;2.10;;
8592;SDS011;4334;49.982;8.398;2023-02-26T04:03:26;5.90;;;2.50;;
8592;SDS011;4334;49.982;8.398;2023-02-26T04:05:55;4.87;;;2.53;;
8592;SDS011;4334;49.982;8.398;2023-02-26T04:08:24;3.93;;;2.40;;
8592;SDS011;4334;49.982;8.398;2023-02-26T04:10:52;4.93;;;2.33;;
8592;SDS011;4334;49.982;8.398;2023-02-26T04:13:21;5.43;;;2.30;;
8592;SDS011;4334;49.982;8.398;2023-02-26T04:15:48;4.40;;;2.60;;
8592;SDS011;4334;49.982;8.398;2023-02-26T04:18:15;4.77;;;2.43;;
8592;SDS011;4334;49.982;8.398;2023-02-26T04:20:43;6.03;;;2.67;;
8592;SDS011;4334;49.982;8.398;2023-02-26T04:23:10;5.67;;;2.67;;
8592;SDS011;4334;49.982;8.398;2023-02-26T04:25:37;8.07;;;3.20;;
8592;SDS011;4334;49.982;8.398;2023-02-26T04:28:04;6.10;;;2.93;;
8592;SDS011;4334;49.982;8.398;2023-02-26T04:30:30;5.70;;;2.77;;
8592;SDS011;4334;49.982;8.398;2023-02-26T04:32:57;5.60;;;2.70;;
8592;SDS011;4334;49.982;8.398;2023-02-26T04:35:24;4.83;;;2.47;;
8592;SDS011;4334;49.982;8.398;2023-02-26T04:37:52;5.50;;;2.87;;
8592;SDS011;4334;49.982;8.398;2023-02-26T04:40:18;5.87;;;2.83;;
8592;SDS011;4334;49.982;8.398;2023-02-26T04:42:47;5.77;;;2.90;;
8592;SDS011;4334;49.982;8.398;2023-02-26T04:45:14;4.73;;;2.67;;
8592;SDS011;4334;49.982;8.398;2023-02-26T04:47:41;7.97;;;2.70;;
8592;SDS011;4334;49.982;8.398;2023-02-26T04:50:08;4.20;;;2.80;;
8592;SDS011;4334;49.982;8.398;2023-02-26T04:52:36;4.37;;;2.77;;
8592;SDS011;4334;49.982;8.398;2023-02-26T04:55:04;6.13;;;3.00;;
8592;SDS011;4334;49.982;8.398;2023-02-26T04:57:32;7.90;;;2.90;;
8592;SDS011;4334;49.982;8.398;2023-02-26T04:59:59;4.67;;;2.97;;
8592;SDS011;4334;49.982;8.398;2023-02-26T05:02:26;4.43;;;3.00;;
8592;SDS011;4334;49.982;8.398;2023-02-26T05:04:52;4.80;;;3.03;;
8592;SDS011;4334;49.982;8.398;2023-02-26T05:07:19;4.40;;;3.00;;
8592;SDS011;4334;49.982;8.398;2023-02-26T05:09:46;5.37;;;3.10;;
8592;SDS011;4334;49.982;8.398;2023-02-26T05:12:14;5.37;;;3.23;;
8592;SDS011;4334;49.982;8.398;2023-02-26T05:14:41;8.70;;;3.10;;
8592;SDS011;4334;49.982;8.398;2023-02-26T05:17:08;4.63;;;3.07;;
8592;SDS011;4334;49.982;8.398;2023-02-26T05:19:34;4.13;;;2.70;;
8592;SDS011;4334;49.982;8.398;2023-02-26T05:22:01;5.37;;;3.00;;
8592;SDS011;4334;49.982;8.398;2023-02-26T05:24:28;3.77;;;2.73;;
8592;SDS011;4334;49.982;8.398;2023-02-26T05:26:55;6.53;;;3.40;;
8592;SDS011;4334;49.982;8.398;2023-02-26T05:29:23;9.67;;;3.30;;
8592;SDS011;4334;49.982;8.398;2023-02-26T05:31:49;8.30;;;3.20;;
8592;SDS011;4334;49.982;8.398;2023-02-26T05:36:43;6.70;;;2.93;;
8592;SDS011;4334;49.982;8.398;2023-02-26T05:39:10;8.13;;;2.70;;
8592;SDS011;4334;49.982;8.398;2023-02-26T05:41:37;7.83;;;3.07;;
8592;SDS011;4334;49.982;8.398;2023-02-26T05:44:03;5.03;;;2.70;;
8592;SDS011;4334;49.982;8.398;2023-02-26T05:46:33;3.60;;;2.40;;
8592;SDS011;4334;49.982;8.398;2023-02-26T05:48:59;5.50;;;2.17;;
8592;SDS011;4334;49.982;8.398;2023-02-26T05:51:26;5.83;;;2.27;;
8592;SDS011;4334;49.982;8.398;2023-02-26T05:53:53;6.40;;;2.20;;
8592;SDS011;4334;49.982;8.398;2023-02-26T05:56:20;5.23;;;2.33;;
8592;SDS011;4334;49.982;8.398;2023-02-26T05:58:47;4.77;;;2.23;;
8592;SDS011;4334;49.982;8.398;2023-02-26T06:01:13;4.60;;;2.30;;
8592;SDS011;4334;49.982;8.398;2023-02-26T06:03:42;4.20;;;2.20;;
8592;SDS011;4334;49.982;8.398;2023-02-26T06:06:09;6.43;;;2.13;;
8592;SDS011;4334;49.982;8.398;2023-02-26T06:08:36;6.03;;;2.37;;
8592;SDS011;4334;49.982;8.398;2023-02-26T06:11:03;4.07;;;2.10;;
8592;SDS011;4334;49.982;8.398;2023-02-26T06:13:30;5.57;;;2.13;;
8592;SDS011;4334;49.982;8.398;2023-02-26T06:15:56;5.47;;;2.10;;
8592;SDS011;4334;49.982;8.398;2023-02-26T06:18:23;3.90;;;2.20;;
8592;SDS011;4334;49.982;8.398;2023-02-26T06:20:52;6.00;;;2.23;;
8592;SDS011;4334;49.982;8.398;2023-02-26T06:23:18;3.80;;;2.10;;
8592;SDS011;4334;49.982;8.398;2023-02-26T06:25:45;4.97;;;2.40;;
8592;SDS011;4334;49.982;8.398;2023-02-26T06:28:12;4.00;;;1.90;;
8592;SDS011;4334;49.982;8.398;2023-02-26T06:30:38;3.27;;;1.90;;
8592;SDS011;4334;49.982;8.398;2023-02-26T06:33:05;3.07;;;2.10;;
8592;SDS011;4334;49.982;8.398;2023-02-26T06:35:32;3.13;;;2.10;;
8592;SDS011;4334;49.982;8.398;2023-02-26T06:38:00;6.87;;;2.27;;
8592;SDS011;4334;49.982;8.398;2023-02-26T06:40:27;4.90;;;2.23;;
8592;SDS011;4334;49.982;8.398;2023-02-26T06:42:54;3.73;;;1.90;;
8592;SDS011;4334;49.982;8.398;2023-02-26T06:45:21;2.13;;;1.87;;
8592;SDS011;4334;49.982;8.398;2023-02-26T06:47:49;2.97;;;2.10;;
8592;SDS011;4334;49.982;8.398;2023-02-26T06:50:16;3.37;;;2.10;;
8592;SDS011;4334;49.982;8.398;2023-02-26T06:52:43;3.20;;;1.90;;
8592;SDS011;4334;49.982;8.398;2023-02-26T06:55:11;4.37;;;2.10;;
8592;SDS011;4334;49.982;8.398;2023-02-26T06:57:38;2.97;;;2.03;;
8592;SDS011;4334;49.982;8.398;2023-02-26T07:00:06;5.17;;;1.97;;
8592;SDS011;4334;49.982;8.398;2023-02-26T07:02:33;4.90;;;2.20;;
8592;SDS011;4334;49.982;8.398;2023-02-26T07:05:00;3.20;;;2.00;;
8592;SDS011;4334;49.982;8.398;2023-02-26T07:07:27;3.10;;;1.90;;
8592;SDS011;4334;49.982;8.398;2023-02-26T07:09:54;4.13;;;2.23;;
8592;SDS011;4334;49.982;8.398;2023-02-26T07:12:22;3.90;;;2.40;;
8592;SDS011;4334;49.982;8.398;2023-02-26T07:14:49;4.00;;;2.10;;
8592;SDS011;4334;49.982;8.398;2023-02-26T07:17:15;3.30;;;2.07;;
8592;SDS011;4334;49.982;8.398;2023-02-26T07:19:45;3.63;;;2.50;;
8592;SDS011;4334;49.982;8.398;2023-02-26T07:22:12;4.73;;;2.50;;
8592;SDS011;4334;49.982;8.398;2023-02-26T07:24:39;4.63;;;2.00;;
8592;SDS011;4334;49.982;8.398;2023-02-26T07:27:06;6.07;;;2.27;;
8592;SDS011;4334;49.982;8.398;2023-02-26T07:29:35;4.60;;;2.17;;
8592;SDS011;4334;49.982;8.398;2023-02-26T07:32:03;2.87;;;2.07;;
8592;SDS011;4334;49.982;8.398;2023-02-26T07:34:30;3.57;;;2.10;;
8592;SDS011;4334;49.982;8.398;2023-02-26T07:36:57;3.50;;;2.23;;
8592;SDS011;4334;49.982;8.398;2023-02-26T07:39:24;3.73;;;2.03;;
8592;SDS011;4334;49.982;8.398;2023-02-26T07:41:51;3.13;;;2.20;;
8592;SDS011;4334;49.982;8.398;2023-02-26T07:44:18;4.30;;;2.20;;
8592;SDS011;4334;49.982;8.398;2023-02-26T07:46:46;2.43;;;1.70;;
8592;SDS011;4334;49.982;8.398;2023-02-26T07:49:14;4.70;;;2.00;;
8592;SDS011;4334;49.982;8.398;2023-02-26T07:51:40;5.00;;;1.93;;
8592;SDS011;4334;49.982;8.398;2023-02-26T07:54:10;4.20;;;1.87;;
8592;SDS011;4334;49.982;8.398;2023-02-26T07:56:37;7.23;;;2.10;;
8592;SDS011;4334;49.982;8.398;2023-02-26T07:59:05;2.60;;;1.80;;
8592;SDS011;4334;49.982;8.398;2023-02-26T08:01:32;2.87;;;2.07;;
8592;SDS011;4334;49.982;8.398;2023-02-26T08:04:00;3.97;;;2.00;;
8592;SDS011;4334;49.982;8.398;2023-02-26T08:06:27;3.60;;;2.00;;
8592;SDS011;4334;49.982;8.398;2023-02-26T08:08:54;4.63;;;2.10;;
8592;SDS011;4334;49.982;8.398;2023-02-26T08:11:21;5.50;;;1.90;;
8592;SDS011;4334;49.982;8.398;2023-02-26T08:13:47;3.10;;;2.00;;
8592;SDS011;4334;49.982;8.398;2023-02-26T08:16:14;3.37;;;1.60;;
8592;SDS011;4334;49.982;8.398;2023-02-26T08:18:41;2.97;;;1.70;;
8592;SDS011;4334;49.982;8.398;2023-02-26T08:21:09;3.30;;;1.93;;
8592;SDS011;4334;49.982;8.398;2023-02-26T08:23:36;3.50;;;1.80;;
8592;SDS011;4334;49.982;8.398;2023-02-26T08:26:04;2.73;;;1.93;;
8592;SDS011;4334;49.982;8.398;2023-02-26T08:28:32;4.07;;;2.00;;
8592;SDS011;4334;49.982;8.398;2023-02-26T08:30:59;4.87;;;2.10;;
8592;SDS011;4334;49.982;8.398;2023-02-26T08:33:27;3.93;;;2.10;;
8592;SDS011;4334;49.982;8.398;2023-02-26T08:35:54;2.83;;;1.87;;
8592;SDS011;4334;49.982;8.398;2023-02-26T08:38:26;2.57;;;1.70;;
8592;SDS011;4334;49.982;8.398;2023-02-26T08:40:53;2.23;;;1.80;;
8592;SDS011;4334;49.982;8.398;2023-02-26T08:43:20;5.07;;;1.80;;
8592;SDS011;4334;49.982;8.398;2023-02-26T08:45:48;2.37;;;1.80;;
8592;SDS011;4334;49.982;8.398;2023-02-26T08:48:17;2.73;;;1.73;;
8592;SDS011;4334;49.982;8.398;2023-02-26T08:50:43;3.17;;;1.80;;
8592;SDS011;4334;49.982;8.398;2023-02-26T08:53:10;4.00;;;1.70;;
8592;SDS011;4334;49.982;8.398;2023-02-26T08:55:38;2.83;;;1.80;;
8592;SDS011;4334;49.982;8.398;2023-02-26T08:58:05;2.10;;;1.80;;
8592;SDS011;4334;49.982;8.398;2023-02-26T09:00:33;2.47;;;1.70;;
8592;SDS011;4334;49.982;8.398;2023-02-26T09:02:59;2.87;;;1.60;;
8592;SDS011;4334;49.982;8.398;2023-02-26T09:05:26;2.40;;;1.73;;
8592;SDS011;4334;49.982;8.398;2023-02-26T09:07:53;2.73;;;1.60;;
8592;SDS011;4334;49.982;8.398;2023-02-26T09:10:20;1.53;;;1.40;;
8592;SDS011;4334;49.982;8.398;2023-02-26T09:12:48;2.27;;;1.57;;
8592;SDS011;4334;49.982;8.398;2023-02-26T09:15:15;2.27;;;1.67;;
8592;SDS011;4334;49.982;8.398;2023-02-26T09:17:42;3.50;;;1.47;;
8592;SDS011;4334;49.982;8.398;2023-02-26T09:20:09;2.37;;;1.50;;
8592;SDS011;4334;49.982;8.398;2023-02-26T09:22:37;2.10;;;1.40;;
8592;SDS011;4334;49.982;8.398;2023-02-26T09:25:04;2.73;;;1.50;;
8592;SDS011;4334;49.982;8.398;2023-02-26T09:27:32;1.77;;;1.40;;
8592;SDS011;4334;49.982;8.398;2023-02-26T09:30:00;1.93;;;1.50;;
8592;SDS011;4334;49.982;8.398;2023-02-26T09:32:27;1.73;;;1.30;;
8592;SDS011;4334;49.982;8.398;2023-02-26T09:34:54;2.57;;;1.60;;
8592;SDS011;4334;49.982;8.398;2023-02-26T09:37:20;3.13;;;1.77;;
8592;SDS011;4334;49.982;8.398;2023-02-26T09:39:48;2.53;;;1.70;;
8592;SDS011;4334;49.982;8.398;2023-02-26T09:42:17;3.63;;;1.70;;
8592;SDS011;4334;49.982;8.398;2023-02-26T09:44:51;2.60;;;1.30;;
8592;SDS011;4334;49.982;8.398;2023-02-26T09:47:24;3.47;;;1.60;;
8592;SDS011;4334;49.982;8.398;2023-02-26T09:50:03;3.10;;;1.90;;
8592;SDS011;4334;49.982;8.398;2023-02-26T09:52:36;2.37;;;1.50;;
8592;SDS011;4334;49.982;8.398;2023-02-26T09:55:10;2.30;;;1.40;;
8592;SDS011;4334;49.982;8.398;2023-02-26T09:57:40;2.10;;;1.47;;
8592;SDS011;4334;49.982;8.398;2023-02-26T10:00:15;2.13;;;1.60;;
8592;SDS011;4334;49.982;8.398;2023-02-26T10:02:50;3.17;;;1.80;;
8592;SDS011;4334;49.982;8.398;2023-02-26T10:05:27;3.30;;;1.70;;
8592;SDS011;4334;49.982;8.398;2023-02-26T10:08:03;8.33;;;1.70;;
8592;SDS011;4334;49.982;8.398;2023-02-26T10:10:34;2.40;;;1.40;;
8592;SDS011;4334;49.982;8.398;2023-02-26T10:13:07;3.00;;;1.60;;
8592;SDS011;4334;49.982;8.398;2023-02-26T10:15:44;3.00;;;1.50;;
8592;SDS011;4334;49.982;8.398;2023-02-26T10:18:15;3.10;;;1.63;;
8592;SDS011;4334;49.982;8.398;2023-02-26T10:20:49;2.13;;;1.40;;
8592;SDS011;4334;49.982;8.398;2023-02-26T10:23:21;3.27;;;1.97;;
8592;SDS011;4334;49.982;8.398;2023-02-26T10:25:51;2.80;;;1.57;;
8592;SDS011;4334;49.982;8.398;2023-02-26T10:28:40;2.43;;;1.67;;
8592;SDS011;4334;49.982;8.398;2023-02-26T10:31:17;2.70;;;1.67;;
8592;SDS011;4334;49.982;8.398;2023-02-26T10:33:52;9.23;;;1.73;;
8592;SDS011;4334;49.982;8.398;2023-02-26T10:36:26;1.73;;;1.30;;
8592;SDS011;4334;49.982;8.398;2023-02-26T10:38:57;2.23;;;1.70;;
8592;SDS011;4334;49.982;8.398;2023-02-26T10:41:29;3.63;;;1.70;;
8592;SDS011;4334;49.982;8.398;2023-02-26T10:44:01;2.10;;;1.70;;
8592;SDS011;4334;49.982;8.398;2023-02-26T10:46:36;2.07;;;1.40;;
8592;SDS011;4334;49.982;8.398;2023-02-26T10:49:21;5.30;;;1.90;;
8592;SDS011;4334;49.982;8.398;2023-02-26T10:52:09;5.23;;;1.57;;
8592;SDS011;4334;49.982;8.398;2023-02-26T10:54:40;2.40;;;1.60;;
8592;SDS011;4334;49.982;8.398;2023-02-26T10:57:15;1.87;;;1.50;;
8592;SDS011;4334;49.982;8.398;2023-02-26T10:59:46;2.67;;;1.50;;
8592;SDS011;4334;49.982;8.398;2023-02-26T11:02:22;3.17;;;1.60;;
8592;SDS011;4334;49.982;8.398;2023-02-26T11:05:00;2.13;;;1.33;;
8592;SDS011;4334;49.982;8.398;2023-02-26T11:07:27;3.13;;;1.50;;
8592;SDS011;4334;49.982;8.398;2023-02-26T11:09:56;1.73;;;1.50;;
8592;SDS011;4334;49.982;8.398;2023-02-26T11:12:24;1.60;;;1.50;;
8592;SDS011;4334;49.982;8.398;2023-02-26T11:14:51;4.10;;;1.23;;
8592;SDS011;4334;49.982;8.398;2023-02-26T11:17:19;1.70;;;1.37;;
8592;SDS011;4334;49.982;8.398;2023-02-26T11:19:52;1.67;;;1.30;;
8592;SDS011;4334;49.982;8.398;2023-02-26T11:22:23;1.60;;;1.33;;
8592;SDS011;4334;49.982;8.398;2023-02-26T11:24:52;2.90;;;1.67;;
8592;SDS011;4334;49.982;8.398;2023-02-26T11:27:23;3.83;;;1.50;;
8592;SDS011;4334;49.982;8.398;2023-02-26T11:29:52;2.83;;;1.50;;
8592;SDS011;4334;49.982;8.398;2023-02-26T11:32:22;2.23;;;1.30;;
8592;SDS011;4334;49.982;8.398;2023-02-26T11:34:55;1.93;;;1.20;;
8592;SDS011;4334;49.982;8.398;2023-02-26T11:37:27;1.63;;;1.23;;
8592;SDS011;4334;49.982;8.398;2023-02-26T11:40:06;1.73;;;1.20;;
8592;SDS011;4334;49.982;8.398;2023-02-26T11:42:41;1.73;;;1.33;;
8592;SDS011;4334;49.982;8.398;2023-02-26T11:45:13;1.60;;;1.40;;
8592;SDS011;4334;49.982;8.398;2023-02-26T11:47:43;4.03;;;1.53;;
8592;SDS011;4334;49.982;8.398;2023-02-26T11:50:13;1.93;;;1.53;;
8592;SDS011;4334;49.982;8.398;2023-02-26T11:52:43;2.33;;;1.50;;
8592;SDS011;4334;49.982;8.398;2023-02-26T11:55:16;2.83;;;1.50;;
8592;SDS011;4334;49.982;8.398;2023-02-26T11:57:45;1.90;;;1.50;;
8592;SDS011;4334;49.982;8.398;2023-02-26T12:00:18;2.43;;;1.33;;
8592;SDS011;4334;49.982;8.398;2023-02-26T12:02:48;1.47;;;1.30;;
8592;SDS011;4334;49.982;8.398;2023-02-26T12:05:16;1.90;;;1.33;;
8592;SDS011;4334;49.982;8.398;2023-02-26T12:07:44;2.97;;;1.47;;
8592;SDS011;4334;49.982;8.398;2023-02-26T12:10:13;2.50;;;1.40;;
8592;SDS011;4334;49.982;8.398;2023-02-26T12:12:49;2.73;;;1.60;;
8592;SDS011;4334;49.982;8.398;2023-02-26T12:15:27;1.97;;;1.50;;
8592;SDS011;4334;49.982;8.398;2023-02-26T12:18:07;2.40;;;1.50;;
8592;SDS011;4334;49.982;8.398;2023-02-26T12:20:55;2.17;;;1.40;;
8592;SDS011;4334;49.982;8.398;2023-02-26T12:23:47;4.47;;;1.57;;
8592;SDS011;4334;49.982;8.398;2023-02-26T12:26:30;1.67;;;1.30;;
8592;SDS011;4334;49.982;8.398;2023-02-26T12:29:02;1.50;;;1.37;;
8592;SDS011;4334;49.982;8.398;2023-02-26T12:32:09;2.37;;;1.53;;
8592;SDS011;4334;49.982;8.398;2023-02-26T12:35:04;1.97;;;1.47;;
8592;SDS011;4334;49.982;8.398;2023-02-26T12:38:03;3.37;;;1.47;;
8592;SDS011;4334;49.982;8.398;2023-02-26T12:40:51;2.20;;;1.30;;
8592;SDS011;4334;49.982;8.398;2023-02-26T12:43:37;3.73;;;1.50;;
8592;SDS011;4334;49.982;8.398;2023-02-26T12:46:17;3.50;;;1.30;;
8592;SDS011;4334;49.982;8.398;2023-02-26T12:48:56;2.23;;;1.70;;
8592;SDS011;4334;49.982;8.398;2023-02-26T12:51:59;2.27;;;1.30;;
8592;SDS011;4334;49.982;8.398;2023-02-26T12:54:44;4.07;;;1.57;;
8592;SDS011;4334;49.982;8.398;2023-02-26T12:57:30;2.13;;;1.30;;
8592;SDS011;4334;49.982;8.398;2023-02-26T13:00:18;2.73;;;1.23;;
8592;SDS011;4334;49.982;8.398;2023-02-26T13:02:59;2.40;;;1.50;;
8592;SDS011;4334;49.982;8.398;2023-02-26T13:05:45;1.30;;;1.20;;
8592;SDS011;4334;49.982;8.398;2023-02-26T13:08:25;2.47;;;1.50;;
8592;SDS011;4334;49.982;8.398;2023-02-26T13:11:00;2.77;;;1.53;;
8592;SDS011;4334;49.982;8.398;2023-02-26T13:13:52;1.70;;;1.40;;
8592;SDS011;4334;49.982;8.398;2023-02-26T13:16:30;2.03;;;1.30;;
8592;SDS011;4334;49.982;8.398;2023-02-26T13:19:07;2.97;;;1.40;;
8592;SDS011;4334;49.982;8.398;2023-02-26T13:21:45;2.33;;;1.30;;
8592;SDS011;4334;49.982;8.398;2023-02-26T13:24:17;1.70;;;1.30;;
8592;SDS011;4334;49.982;8.398;2023-02-26T13:26:48;1.53;;;1.30;;
8592;SDS011;4334;49.982;8.398;2023-02-26T13:29:18;1.40;;;1.13;;
8592;SDS011;4334;49.982;8.398;2023-02-26T13:31:49;1.40;;;1.23;;
8592;SDS011;4334;49.982;8.398;2023-02-26T13:34:22;1.80;;;1.30;;
8592;SDS011;4334;49.982;8.398;2023-02-26T13:37:04;1.47;;;1.20;;
8592;SDS011;4334;49.982;8.398;2023-02-26T13:39:38;2.03;;;1.23;;
8592;SDS011;4334;49.982;8.398;2023-02-26T13:42:16;1.47;;;1.17;;
8592;SDS011;4334;49.982;8.398;2023-02-26T13:44:53;2.00;;;1.03;;
8592;SDS011;4334;49.982;8.398;2023-02-26T13:47:38;1.20;;;1.10;;
8592;SDS011;4334;49.982;8.398;2023-02-26T13:50:23;1.43;;;1.17;;
8592;SDS011;4334;49.982;8.398;2023-02-26T13:52:54;1.27;;;0.97;;
8592;SDS011;4334;49.982;8.398;2023-02-26T13:55:36;0.97;;;0.97;;
8592;SDS011;4334;49.982;8.398;2023-02-26T13:58:15;1.63;;;0.87;;
8592;SDS011;4334;49.982;8.398;2023-02-26T14:00:46;3.73;;;1.17;;
8592;SDS011;4334;49.982;8.398;2023-02-26T14:03:29;2.67;;;1.07;;
8592;SDS011;4334;49.982;8.398;2023-02-26T14:06:06;1.20;;;1.10;;
8592;SDS011;4334;49.982;8.398;2023-02-26T14:14:12;1.40;;;1.17;;
8592;SDS011;4334;49.982;8.398;2023-02-26T14:16:44;3.20;;;1.20;;
8592;SDS011;4334;49.982;8.398;2023-02-26T14:19:20;1.40;;;1.27;;
8592;SDS011;4334;49.982;8.398;2023-02-26T14:21:50;2.90;;;1.57;;
8592;SDS011;4334;49.982;8.398;2023-02-26T14:24:19;3.00;;;1.47;;
8592;SDS011;4334;49.982;8.398;2023-02-26T14:26:50;1.80;;;1.23;;
8592;SDS011;4334;49.982;8.398;2023-02-26T14:29:37;1.97;;;1.50;;
8592;SDS011;4334;49.982;8.398;2023-02-26T14:32:14;3.27;;;1.63;;
8592;SDS011;4334;49.982;8.398;2023-02-26T14:34:51;1.30;;;1.20;;
8592;SDS011;4334;49.982;8.398;2023-02-26T14:37:23;2.67;;;1.60;;
8592;SDS011;4334;49.982;8.398;2023-02-26T14:39:53;3.03;;;1.33;;
8592;SDS011;4334;49.982;8.398;2023-02-26T14:42:24;1.27;;;1.10;;
8592;SDS011;4334;49.982;8.398;2023-02-26T14:45:00;3.07;;;1.30;;
8592;SDS011;4334;49.982;8.398;2023-02-26T14:47:35;2.20;;;1.60;;
8592;SDS011;4334;49.982;8.398;2023-02-26T14:50:04;1.80;;;1.33;;
8592;SDS011;4334;49.982;8.398;2023-02-26T14:55:22;1.23;;;1.10;;
8592;SDS011;4334;49.982;8.398;2023-02-26T14:58:04;2.23;;;1.40;;
8592;SDS011;4334;49.982;8.398;2023-02-26T15:00:44;1.20;;;1.10;;
8592;SDS011;4334;49.982;8.398;2023-02-26T15:03:23;2.43;;;1.40;;
8592;SDS011;4334;49.982;8.398;2023-02-26T15:06:14;1.57;;;1.40;;
8592;SDS011;4334;49.982;8.398;2023-02-26T15:08:54;2.40;;;1.40;;
8592;SDS011;4334;49.982;8.398;2023-02-26T15:11:32;2.20;;;1.30;;
8592;SDS011;4334;49.982;8.398;2023-02-26T15:14:32;1.50;;;1.20;;
8592;SDS011;4334;49.982;8.398;2023-02-26T15:17:16;2.23;;;1.50;;
8592;SDS011;4334;49.982;8.398;2023-02-26T15:20:00;2.23;;;1.40;;
8592;SDS011;4334;49.982;8.398;2023-02-26T15:22:38;1.63;;;1.40;;
8592;SDS011;4334;49.982;8.398;2023-02-26T15:25:22;1.40;;;1.10;;
8592;SDS011;4334;49.982;8.398;2023-02-26T15:27:54;1.60;;;1.07;;
8592;SDS011;4334;49.982;8.398;2023-02-26T15:30:22;3.57;;;1.27;;
8592;SDS011;4334;49.982;8.398;2023-02-26T15:32:54;2.37;;;1.20;;
8592;SDS011;4334;49.982;8.398;2023-02-26T15:35:25;2.53;;;1.40;;
8592;SDS011;4334;49.982;8.398;2023-02-26T15:37:54;1.23;;;1.13;;
8592;SDS011;4334;49.982;8.398;2023-02-26T15:40:25;1.77;;;1.10;;
8592;SDS011;4334;49.982;8.398;2023-02-26T15:42:54;0.80;;;0.80;;
8592;SDS011;4334;49.982;8.398;2023-02-26T15:45:26;1.73;;;1.20;;
8592;SDS011;4334;49.982;8.398;2023-02-26T15:47:58;1.63;;;1.20;;
8592;SDS011;4334;49.982;8.398;2023-02-26T15:50:30;1.20;;;1.10;;
8592;SDS011;4334;49.982;8.398;2023-02-26T15:53:01;1.30;;;1.20;;
8592;SDS011;4334;49.982;8.398;2023-02-26T15:55:31;1.80;;;1.17;;
8592;SDS011;4334;49.982;8.398;2023-02-26T15:58:01;1.30;;;1.20;;